createdAt,value
2019-03-29T00:00:58.955Z,102804.38
2019-03-29T00:03:28.507Z,102814.06
2019-03-29T00:05:58.105Z,102814.06
2019-03-29T00:08:27.647Z,102816.31
2019-03-29T00:10:57.269Z,102807.44
2019-03-29T00:13:26.877Z,102810.52
2019-03-29T00:15:56.475Z,102811.39
2019-03-29T00:18:26.104Z,102815.77
2019-03-29T00:20:55.708Z,102818.84
2019-03-29T00:23:25.260Z,102814.44
2019-03-29T00:25:54.865Z,102809.08
2019-03-29T00:28:24.479Z,102807.30
2019-03-29T00:30:54.079Z,102811.67
2019-03-29T00:33:24.030Z,102808.12
2019-03-29T00:35:53.713Z,102806.74
2019-03-29T00:38:23.334Z,102812.05
2019-03-29T00:40:52.862Z,102806.28
2019-03-29T00:43:22.498Z,102805.36
2019-03-29T00:45:52.085Z,102796.45
2019-03-29T00:48:21.988Z,102803.91
2019-03-29T00:50:51.687Z,102797.66
2019-03-29T00:53:21.302Z,102800.25
2019-03-29T00:55:50.915Z,102796.27
2019-03-29T00:58:20.560Z,102796.70
2019-03-29T01:00:50.163Z,102794.43
2019-03-29T01:03:20.505Z,102793.48
2019-03-29T01:05:50.106Z,102792.92
2019-03-29T01:08:19.733Z,102789.27
2019-03-29T01:10:49.337Z,102782.15
2019-03-29T01:13:18.965Z,102786.13
2019-03-29T01:15:48.569Z,102780.80
2019-03-29T01:18:18.306Z,102784.28
2019-03-29T01:20:48.091Z,102783.33
2019-03-29T01:23:17.719Z,102777.97
2019-03-29T01:25:47.310Z,102786.34
2019-03-29T01:28:16.829Z,102777.91
2019-03-29T01:30:46.466Z,102776.52
2019-03-29T01:33:16.077Z,102773.81
2019-03-29T01:35:45.628Z,102773.35
2019-03-29T01:38:21.653Z,102773.75
2019-03-29T01:40:46.567Z,102776.34
2019-03-29T01:43:16.111Z,102770.52
2019-03-29T01:45:46.041Z,102775.33
2019-03-29T01:48:15.727Z,102777.09
2019-03-29T01:50:45.367Z,102770.46
2019-03-29T01:53:14.949Z,102766.86
2019-03-29T01:55:44.601Z,102770.89
2019-03-29T01:58:14.229Z,102766.48
2019-03-29T02:00:43.859Z,102765.59
2019-03-29T02:03:13.417Z,102763.34
2019-03-29T02:05:43.011Z,102757.59
2019-03-29T02:08:12.608Z,102759.74
2019-03-29T02:10:42.225Z,102757.95
2019-03-29T02:13:11.819Z,102760.17
2019-03-29T02:15:41.441Z,102761.87
2019-03-29T02:18:11.037Z,102755.19
2019-03-29T02:20:40.751Z,102756.91
2019-03-29T02:23:10.339Z,102754.23
2019-03-29T02:25:39.958Z,102752.42
2019-03-29T02:28:09.559Z,102743.52
2019-03-29T02:30:39.174Z,102740.00
2019-03-29T02:33:08.778Z,102737.29
2019-03-29T02:35:38.983Z,102737.72
2019-03-29T02:38:08.697Z,102734.13
2019-03-29T02:40:38.313Z,102736.28
2019-03-29T02:43:07.935Z,102733.17
2019-03-29T02:45:37.554Z,102732.67
2019-03-29T02:48:07.149Z,102733.05
2019-03-29T02:50:36.855Z,102736.53
2019-03-29T02:53:06.866Z,102732.98
2019-03-29T02:55:36.496Z,102735.14
2019-03-29T02:58:06.090Z,102733.81
2019-03-29T03:00:35.725Z,102732.92
2019-03-29T03:03:05.334Z,102729.39
2019-03-29T03:05:34.960Z,102724.48
2019-03-29T03:08:04.555Z,102725.29
2019-03-29T03:10:34.185Z,102727.11
2019-03-29T03:13:03.776Z,102721.81
2019-03-29T03:15:33.390Z,102720.88
2019-03-29T03:18:02.991Z,102720.88
2019-03-29T03:20:32.622Z,102718.11
2019-03-29T03:23:02.144Z,102725.23
2019-03-29T03:25:31.768Z,102729.57
2019-03-29T03:28:01.291Z,102722.09
2019-03-29T03:30:30.912Z,102722.06
2019-03-29T03:33:00.351Z,102732.68
2019-03-29T03:35:30.093Z,102729.14
2019-03-29T03:37:59.649Z,102733.17
2019-03-29T03:40:29.266Z,102737.14
2019-03-29T03:42:59.352Z,102731.42
2019-03-29T03:45:28.973Z,102729.70
2019-03-29T03:47:58.568Z,102732.34
2019-03-29T03:50:41.920Z,102729.70
2019-03-29T03:53:12.075Z,102726.55
2019-03-29T03:55:42.289Z,102727.87
2019-03-29T03:58:12.832Z,102723.91
2019-03-29T04:00:56.252Z,102723.91
2019-03-29T04:03:26.882Z,102727.87
2019-03-29T04:05:56.642Z,102721.20
2019-03-29T04:08:26.367Z,102722.83
2019-03-29T04:10:56.038Z,102717.87
2019-03-29T04:13:25.638Z,102725.38
2019-03-29T04:15:55.277Z,102722.67
2019-03-29T04:18:24.799Z,102726.64
2019-03-29T04:20:54.420Z,102725.75
2019-03-29T04:23:24.025Z,102727.51
2019-03-29T04:25:53.626Z,102727.97
2019-03-29T04:28:23.215Z,102727.97
2019-03-29T04:30:52.832Z,102728.41
2019-03-29T04:33:22.423Z,102727.97
2019-03-29T04:35:52.048Z,102726.64
2019-03-29T04:38:21.641Z,102726.25
2019-03-29T04:40:51.264Z,102727.08
2019-03-29T04:43:20.878Z,102724.42
2019-03-29T04:45:50.507Z,102725.31
2019-03-29T04:48:20.097Z,102732.38
2019-03-29T04:50:49.735Z,102720.95
2019-03-29T04:53:19.254Z,102727.08
2019-03-29T04:55:48.801Z,102721.28
2019-03-29T04:58:18.322Z,102722.61
2019-03-29T05:00:47.946Z,102729.17
2019-03-29T05:03:17.550Z,102734.00
2019-03-29T05:05:47.165Z,102732.19
2019-03-29T05:08:16.681Z,102736.09
2019-03-29T05:10:46.215Z,102736.96
2019-03-29T05:13:15.806Z,102737.85
2019-03-29T05:15:45.421Z,102731.66
2019-03-29T05:18:14.957Z,102735.63
2019-03-29T05:20:44.591Z,102734.71
2019-03-29T05:23:14.187Z,102730.34
2019-03-29T05:25:43.815Z,102727.27
2019-03-29T05:28:13.407Z,102727.20
2019-03-29T05:30:42.955Z,102726.73
2019-03-29T05:33:12.475Z,102719.62
2019-03-29T05:35:42.094Z,102723.53
2019-03-29T05:38:11.692Z,102722.21
2019-03-29T05:40:41.307Z,102724.86
2019-03-29T05:43:10.928Z,102727.56
2019-03-29T05:45:40.551Z,102730.65
2019-03-29T05:48:10.155Z,102728.83
2019-03-29T05:50:39.780Z,102727.02
2019-03-29T05:53:09.381Z,102724.86
2019-03-29T05:55:39.006Z,102732.80
2019-03-29T05:58:08.539Z,102728.30
2019-03-29T06:00:38.238Z,102734.95
2019-03-29T06:03:10.047Z,102735.88
2019-03-29T06:05:39.526Z,102727.44
2019-03-29T06:08:09.152Z,102728.40
2019-03-29T06:10:49.058Z,102728.00
2019-03-29T06:13:10.040Z,102726.25
2019-03-29T06:15:39.665Z,102729.39
2019-03-29T06:18:09.252Z,102729.84
2019-03-29T06:20:38.877Z,102730.80
2019-03-29T06:23:08.514Z,102734.84
2019-03-29T06:25:38.138Z,102722.55
2019-03-29T06:28:07.749Z,102723.48
2019-03-29T06:30:37.349Z,102726.19
2019-03-29T06:33:06.966Z,102726.25
2019-03-29T06:35:40.342Z,102728.03
2019-03-29T06:38:11.349Z,102726.86
2019-03-29T06:40:40.945Z,102727.36
2019-03-29T06:43:10.605Z,102728.77
2019-03-29T06:45:47.812Z,102722.21
2019-03-29T06:48:11.571Z,102721.44
2019-03-29T06:50:41.211Z,102722.39
2019-03-29T06:53:10.796Z,102729.14
2019-03-29T06:55:40.411Z,102720.30
2019-03-29T06:58:10.037Z,102727.81
2019-03-29T07:00:39.646Z,102734.06
2019-03-29T07:03:09.195Z,102726.69
2019-03-29T07:05:38.805Z,102727.25
2019-03-29T07:08:08.440Z,102731.80
2019-03-29T07:10:38.035Z,102726.19
2019-03-29T07:13:07.596Z,102728.06
2019-03-29T07:15:37.205Z,102725.66
2019-03-29T07:18:06.828Z,102719.48
2019-03-29T07:20:36.445Z,102724.02
2019-03-29T07:23:06.093Z,102729.05
2019-03-29T07:25:35.697Z,102728.73
2019-03-29T07:28:05.265Z,102725.33
2019-03-29T07:30:34.880Z,102729.00
2019-03-29T07:33:04.499Z,102732.25
2019-03-29T07:35:34.113Z,102737.69
2019-03-29T07:38:03.730Z,102735.64
2019-03-29T07:40:33.331Z,102735.64
2019-03-29T07:43:02.981Z,102735.33
2019-03-29T07:45:32.580Z,102739.82
2019-03-29T07:48:02.214Z,102737.77
2019-03-29T07:50:31.829Z,102731.66
2019-03-29T07:53:01.452Z,102736.23
2019-03-29T07:55:31.059Z,102735.42
2019-03-29T07:58:01.064Z,102736.42
2019-03-29T08:00:30.685Z,102739.13
2019-03-29T08:03:00.340Z,102739.25
2019-03-29T08:05:29.945Z,102735.81
2019-03-29T08:08:00.033Z,102737.27
2019-03-29T08:10:31.421Z,102743.17
2019-03-29T08:13:01.328Z,102738.48
2019-03-29T08:15:30.953Z,102737.38
2019-03-29T08:18:01.741Z,102735.80
2019-03-29T08:20:43.536Z,102732.84
2019-03-29T08:23:02.783Z,102724.50
2019-03-29T08:25:32.294Z,102733.92
2019-03-29T08:28:01.852Z,102727.49
2019-03-29T08:30:31.772Z,102725.45
2019-03-29T08:33:01.248Z,102722.11
2019-03-29T08:35:30.853Z,102722.23
2019-03-29T08:38:00.480Z,102732.16
2019-03-29T08:40:30.096Z,102723.86
2019-03-29T08:42:59.739Z,102726.69
2019-03-29T08:45:29.351Z,102732.15
2019-03-29T08:47:58.984Z,102729.59
2019-03-29T08:50:28.594Z,102727.17
2019-03-29T08:52:58.247Z,102724.58
2019-03-29T08:55:27.856Z,102729.59
2019-03-29T08:57:57.534Z,102725.26
2019-03-29T09:00:33.897Z,102726.65
2019-03-29T09:03:03.734Z,102722.36
2019-03-29T09:05:33.356Z,102720.30
2019-03-29T09:08:02.995Z,102716.06
2019-03-29T09:10:32.723Z,102719.75
2019-03-29T09:13:04.429Z,102720.34
2019-03-29T09:15:33.670Z,102720.48
2019-03-29T09:18:03.308Z,102717.92
2019-03-29T09:20:34.590Z,102714.37
2019-03-29T09:23:04.213Z,102713.54
2019-03-29T09:25:33.828Z,102714.42
2019-03-29T09:28:03.463Z,102716.29
2019-03-29T09:30:33.071Z,102709.64
2019-03-29T09:33:02.727Z,102709.74
2019-03-29T09:35:32.338Z,102707.52
2019-03-29T09:38:01.975Z,102711.95
2019-03-29T09:40:31.585Z,102706.59
2019-03-29T09:43:08.745Z,102701.27
2019-03-29T09:45:32.589Z,102706.19
2019-03-29T09:48:02.220Z,102704.13
2019-03-29T09:50:31.825Z,102700.27
2019-03-29T09:53:01.811Z,102695.14
2019-03-29T09:55:31.446Z,102702.53
2019-03-29T09:58:01.090Z,102692.91
2019-03-29T10:00:30.705Z,102691.59
2019-03-29T10:03:00.281Z,102688.56
2019-03-29T10:05:31.556Z,102693.57
2019-03-29T10:08:01.237Z,102687.45
2019-03-29T10:10:34.241Z,102684.48
2019-03-29T10:13:02.197Z,102680.56
2019-03-29T10:15:31.832Z,102685.97
2019-03-29T10:18:01.473Z,102678.08
2019-03-29T10:20:31.075Z,102677.84
2019-03-29T10:23:00.645Z,102680.41
2019-03-29T10:25:30.194Z,102673.47
2019-03-29T10:27:59.827Z,102675.11
2019-03-29T10:30:41.302Z,102672.60
2019-03-29T10:33:10.935Z,102664.80
2019-03-29T10:35:51.527Z,102667.30
2019-03-29T10:38:12.201Z,102655.53
2019-03-29T10:40:41.824Z,102657.41
2019-03-29T10:43:11.483Z,102657.17
2019-03-29T10:45:41.103Z,102647.88
2019-03-29T10:48:10.662Z,102643.09
2019-03-29T10:50:40.276Z,102640.59
2019-03-29T10:53:10.015Z,102640.78
2019-03-29T10:55:39.517Z,102638.17
2019-03-29T10:58:09.813Z,102628.49
2019-03-29T11:00:41.017Z,102623.34
2019-03-29T11:03:10.654Z,102628.41
2019-03-29T11:05:40.273Z,102620.55
2019-03-29T11:08:12.189Z,102617.38
2019-03-29T11:10:41.524Z,102620.16
2019-03-29T11:13:13.957Z,102619.83
2019-03-29T11:15:42.490Z,102613.63
2019-03-29T11:18:12.219Z,102615.02
2019-03-29T11:20:41.832Z,102613.69
2019-03-29T11:23:11.463Z,102608.02
2019-03-29T11:25:41.069Z,102603.20
2019-03-29T11:28:10.717Z,102595.61
2019-03-29T11:30:42.756Z,102600.14
2019-03-29T11:33:11.676Z,102591.66
2019-03-29T11:35:41.191Z,102592.63
2019-03-29T11:38:10.836Z,102590.04
2019-03-29T11:40:40.426Z,102580.75
2019-03-29T11:43:10.083Z,102578.09
2019-03-29T11:45:39.680Z,102570.07
2019-03-29T11:48:09.803Z,102571.38
2019-03-29T11:50:39.582Z,102561.11
2019-03-29T11:53:09.185Z,102563.81
2019-03-29T11:55:38.811Z,102551.82
2019-03-29T11:58:08.419Z,102546.48
2019-03-29T12:00:39.365Z,102547.84
2019-03-29T12:03:09.829Z,102545.09
2019-03-29T12:05:39.576Z,102542.85
2019-03-29T12:08:09.176Z,102538.33
2019-03-29T12:10:38.906Z,102531.19
2019-03-29T12:13:10.163Z,102530.28
2019-03-29T12:15:40.137Z,102530.79
2019-03-29T12:18:09.733Z,102526.00
2019-03-29T12:20:39.365Z,102527.87
2019-03-29T12:23:08.993Z,102527.44
2019-03-29T12:25:38.627Z,102528.80
2019-03-29T12:28:08.229Z,102512.31
2019-03-29T12:30:38.156Z,102512.84
2019-03-29T12:33:07.755Z,102513.29
2019-03-29T12:35:37.384Z,102503.35
2019-03-29T12:38:07.008Z,102499.62
2019-03-29T12:40:36.978Z,102494.50
2019-03-29T12:43:06.614Z,102495.21
2019-03-29T12:45:36.232Z,102487.35
2019-03-29T12:48:05.833Z,102490.17
2019-03-29T12:50:35.985Z,102479.90
2019-03-29T12:53:05.595Z,102476.76
2019-03-29T12:55:35.142Z,102467.37
2019-03-29T12:58:04.746Z,102471.36
2019-03-29T13:00:34.567Z,102469.16
2019-03-29T13:03:04.174Z,102467.47
2019-03-29T13:05:33.818Z,102462.70
2019-03-29T13:08:03.258Z,102451.58
2019-03-29T13:10:32.879Z,102454.69
2019-03-29T13:13:02.486Z,102453.79
2019-03-29T13:15:32.113Z,102442.24
2019-03-29T13:18:01.723Z,102443.59
2019-03-29T13:20:31.372Z,102433.34
2019-03-29T13:23:00.996Z,102431.58
2019-03-29T13:25:30.612Z,102427.59
2019-03-29T13:28:00.215Z,102432.53
2019-03-29T13:30:29.834Z,102425.41
2019-03-29T13:32:59.855Z,102417.82
2019-03-29T13:35:29.475Z,102417.42
2019-03-29T13:37:59.068Z,102406.24
2019-03-29T13:40:28.702Z,102403.08
2019-03-29T13:42:58.322Z,102403.05
2019-03-29T13:45:28.246Z,102397.67
2019-03-29T13:47:57.864Z,102404.84
2019-03-29T13:50:27.483Z,102393.23
2019-03-29T13:52:57.112Z,102391.46
2019-03-29T13:55:26.711Z,102376.28
2019-03-29T13:57:56.236Z,102380.28
2019-03-29T14:00:25.874Z,102370.89
2019-03-29T14:02:55.400Z,102377.62
2019-03-29T14:05:25.026Z,102368.23
2019-03-29T14:07:54.624Z,102370.03
2019-03-29T14:10:24.294Z,102361.55
2019-03-29T14:12:53.899Z,102358.41
2019-03-29T14:15:23.539Z,102352.17
2019-03-29T14:17:53.130Z,102354.39
2019-03-29T14:20:33.274Z,102350.81
2019-03-29T14:23:03.777Z,102341.44
2019-03-29T14:25:33.406Z,102340.52
2019-03-29T14:28:03.028Z,102344.12
2019-03-29T14:30:32.649Z,102345.03
2019-03-29T14:33:02.251Z,102347.70
2019-03-29T14:35:31.881Z,102341.43
2019-03-29T14:38:01.488Z,102341.90
2019-03-29T14:40:31.112Z,102333.83
2019-03-29T14:43:00.754Z,102332.48
2019-03-29T14:45:30.381Z,102330.26
2019-03-29T14:47:59.991Z,102324.89
2019-03-29T14:50:29.602Z,102326.70
2019-03-29T14:52:59.222Z,102327.12
2019-03-29T14:55:28.848Z,102324.90
2019-03-29T14:57:58.485Z,102334.73
2019-03-29T15:00:38.995Z,102319.99
2019-03-29T15:03:08.602Z,102328.46
2019-03-29T15:05:38.433Z,102315.94
2019-03-29T15:08:08.147Z,102319.99
2019-03-29T15:10:37.767Z,102319.12
2019-03-29T15:13:07.380Z,102310.64
2019-03-29T15:15:36.932Z,102308.39
2019-03-29T15:18:06.655Z,102309.31
2019-03-29T15:20:36.384Z,102303.06
2019-03-29T15:23:06.002Z,102300.78
2019-03-29T15:25:35.560Z,102295.42
2019-03-29T15:28:05.178Z,102294.52
2019-03-29T15:30:34.811Z,102282.47
2019-03-29T15:33:04.442Z,102289.59
2019-03-29T15:35:33.985Z,102290.95
2019-03-29T15:38:03.610Z,102284.23
2019-03-29T15:40:33.256Z,102282.89
2019-03-29T15:43:02.816Z,102280.22
2019-03-29T15:45:32.445Z,102274.84
2019-03-29T15:48:02.051Z,102268.15
2019-03-29T15:50:31.683Z,102269.95
2019-03-29T15:53:01.285Z,102265.94
2019-03-29T15:55:30.915Z,102256.55
2019-03-29T15:58:00.545Z,102255.66
2019-03-29T16:00:30.099Z,102248.95
2019-03-29T16:02:59.705Z,102245.39
2019-03-29T16:05:29.268Z,102240.02
2019-03-29T16:07:59.740Z,102242.70
2019-03-29T16:10:29.374Z,102243.11
2019-03-29T16:12:58.995Z,102236.38
2019-03-29T16:15:35.208Z,102227.86
2019-03-29T16:17:59.958Z,102226.50
2019-03-29T16:20:29.598Z,102223.34
2019-03-29T16:22:59.210Z,102219.70
2019-03-29T16:25:28.770Z,102222.34
2019-03-29T16:27:58.379Z,102218.31
2019-03-29T16:30:28.019Z,102216.49
2019-03-29T16:32:57.858Z,102218.67
2019-03-29T16:35:27.584Z,102208.35
2019-03-29T16:37:57.807Z,102203.84
2019-03-29T16:40:30.744Z,102200.70
2019-03-29T16:42:58.935Z,102198.45
2019-03-29T16:45:28.629Z,102191.69
2019-03-29T16:47:58.233Z,102198.81
2019-03-29T16:50:27.857Z,102200.58
2019-03-29T16:52:57.538Z,102198.75
2019-03-29T16:55:27.108Z,102195.17
2019-03-29T16:57:56.737Z,102183.12
2019-03-29T17:00:26.341Z,102183.55
2019-03-29T17:02:55.904Z,102187.53
2019-03-29T17:05:25.503Z,102190.19
2019-03-29T17:07:55.133Z,102183.47
2019-03-29T17:10:24.751Z,102181.66
2019-03-29T17:12:54.451Z,102180.23
2019-03-29T17:15:24.066Z,102178.38
2019-03-29T17:17:53.704Z,102179.18
2019-03-29T17:20:23.348Z,102174.23
2019-03-29T17:22:59.572Z,102175.91
2019-03-29T17:25:29.177Z,102173.14
2019-03-29T17:27:58.818Z,102173.05
2019-03-29T17:30:41.432Z,102164.11
2019-03-29T17:33:11.072Z,102166.25
2019-03-29T17:35:40.699Z,102167.56
2019-03-29T17:38:10.347Z,102163.95
2019-03-29T17:40:39.889Z,102165.23
2019-03-29T17:43:09.545Z,102167.84
2019-03-29T17:45:39.156Z,102165.58
2019-03-29T17:48:08.804Z,102161.11
2019-03-29T17:50:38.339Z,102169.92
2019-03-29T17:53:07.975Z,102167.16
2019-03-29T17:55:37.592Z,102167.06
2019-03-29T17:58:07.227Z,102168.77
2019-03-29T18:00:36.849Z,102166.95
2019-03-29T18:03:06.481Z,102171.77
2019-03-29T18:05:36.092Z,102163.73
2019-03-29T18:08:06.028Z,102171.73
2019-03-29T18:10:35.637Z,102170.74
2019-03-29T18:13:05.477Z,102178.22
2019-03-29T18:15:35.088Z,102174.15
2019-03-29T18:18:04.812Z,102165.62
2019-03-29T18:20:34.422Z,102168.23
2019-03-29T18:23:04.147Z,102169.42
2019-03-29T18:25:33.821Z,102172.45
2019-03-29T18:28:03.463Z,102168.36
2019-03-29T18:30:40.611Z,102169.61
2019-03-29T18:33:10.238Z,102164.16
2019-03-29T18:35:39.949Z,102160.08
2019-03-29T18:38:09.588Z,102163.48
2019-03-29T18:40:39.185Z,102157.61
2019-03-29T18:43:08.827Z,102159.27
2019-03-29T18:45:41.451Z,102161.40
2019-03-29T18:48:09.784Z,102164.38
2019-03-29T18:50:39.393Z,102168.25
2019-03-29T18:53:09.065Z,102164.08
2019-03-29T18:55:39.033Z,102161.30
2019-03-29T18:58:08.666Z,102161.58
2019-03-29T19:00:38.273Z,102151.73
2019-03-29T19:03:11.503Z,102156.89
2019-03-29T19:05:39.337Z,102155.43
2019-03-29T19:08:08.962Z,102152.13
2019-03-29T19:10:38.575Z,102148.00
2019-03-29T19:13:08.206Z,102143.37
2019-03-29T19:15:37.815Z,102145.88
2019-03-29T19:18:07.445Z,102148.36
2019-03-29T19:20:37.054Z,102154.41
2019-03-29T19:23:06.679Z,102154.27
2019-03-29T19:25:36.288Z,102153.67
2019-03-29T19:28:05.963Z,102152.23
2019-03-29T19:30:35.506Z,102149.42
2019-03-29T19:33:05.139Z,102153.29
2019-03-29T19:35:34.790Z,102142.52
2019-03-29T19:38:04.445Z,102151.69
2019-03-29T19:40:34.051Z,102144.45
2019-03-29T19:43:03.704Z,102150.56
2019-03-29T19:45:34.456Z,102152.20
2019-03-29T19:48:04.220Z,102144.57
2019-03-29T19:50:33.820Z,102147.98
2019-03-29T19:53:03.459Z,102149.23
2019-03-29T19:55:33.140Z,102143.80
2019-03-29T19:58:02.693Z,102140.14
2019-03-29T20:00:42.795Z,102134.30
2019-03-29T20:03:12.517Z,102140.80
2019-03-29T20:05:42.112Z,102143.73
2019-03-29T20:08:11.824Z,102150.67
2019-03-29T20:10:41.526Z,102145.23
2019-03-29T20:13:11.144Z,102144.22
2019-03-29T20:15:40.659Z,102147.66
2019-03-29T20:18:10.285Z,102143.95
2019-03-29T20:20:39.878Z,102142.45
2019-03-29T20:23:09.416Z,102140.54
2019-03-29T20:25:39.125Z,102147.52
2019-03-29T20:28:08.744Z,102150.91
2019-03-29T20:30:38.335Z,102147.23
2019-03-29T20:33:07.970Z,102144.88
2019-03-29T20:35:37.582Z,102147.44
2019-03-29T20:38:07.224Z,102139.36
2019-03-29T20:40:36.999Z,102145.00
2019-03-29T20:43:06.639Z,102142.20
2019-03-29T20:45:36.240Z,102143.03
2019-03-29T20:48:05.868Z,102140.29
2019-03-29T20:50:35.466Z,102134.06
2019-03-29T20:53:05.086Z,102134.37
2019-03-29T20:55:34.682Z,102128.11
2019-03-29T20:58:04.294Z,102129.81
2019-03-29T21:00:33.894Z,102122.75
2019-03-29T21:03:03.525Z,102122.66
2019-03-29T21:05:33.167Z,102116.83
2019-03-29T21:08:02.762Z,102116.72
2019-03-29T21:10:32.427Z,102120.59
2019-03-29T21:13:02.054Z,102116.53
2019-03-29T21:15:31.669Z,102114.17
2019-03-29T21:18:01.352Z,102120.64
2019-03-29T21:20:30.949Z,102114.36
2019-03-29T21:23:00.590Z,102112.59
2019-03-29T21:25:30.193Z,102103.23
2019-03-29T21:27:59.828Z,102106.61
2019-03-29T21:30:29.438Z,102106.02
2019-03-29T21:32:59.074Z,102101.95
2019-03-29T21:35:28.678Z,102097.87
2019-03-29T21:37:58.313Z,102108.01
2019-03-29T21:40:27.912Z,102108.44
2019-03-29T21:42:57.468Z,102104.83
2019-03-29T21:45:28.930Z,102110.55
2019-03-29T21:48:10.035Z,102104.37
2019-03-29T21:50:29.790Z,102110.12
2019-03-29T21:52:59.419Z,102105.26
2019-03-29T21:55:28.945Z,102104.42
2019-03-29T21:57:58.571Z,102102.18
2019-03-29T22:00:28.094Z,102103.98
2019-03-29T22:02:57.718Z,102104.42
2019-03-29T22:05:27.318Z,102103.45
2019-03-29T22:07:57.051Z,102095.45
2019-03-29T22:10:26.805Z,102094.96
2019-03-29T22:12:56.469Z,102100.64
2019-03-29T22:15:26.139Z,102094.41
2019-03-29T22:17:55.796Z,102096.08
2019-03-29T22:20:25.415Z,102096.85
2019-03-29T22:22:55.037Z,102095.38
2019-03-29T22:25:24.654Z,102098.35
2019-03-29T22:27:54.252Z,102089.42
2019-03-29T22:30:23.894Z,102091.13
2019-03-29T22:32:53.479Z,102092.30
2019-03-29T22:35:23.098Z,102082.92
2019-03-29T22:37:52.694Z,102085.41
2019-03-29T22:40:22.321Z,102088.77
2019-03-29T22:42:51.922Z,102082.43
2019-03-29T22:45:21.566Z,102085.80
2019-03-29T22:47:51.171Z,102084.80
2019-03-29T22:50:20.793Z,102082.87
2019-03-29T22:52:50.387Z,102078.73
2019-03-29T22:55:20.015Z,102068.44
2019-03-29T22:57:49.612Z,102064.31
2019-03-29T23:00:26.924Z,102064.19
2019-03-29T23:02:56.516Z,102069.73
2019-03-29T23:05:26.129Z,102062.08
2019-03-29T23:07:55.724Z,102067.20
2019-03-29T23:10:25.344Z,102060.05
2019-03-29T23:12:54.965Z,102061.30
2019-03-29T23:15:24.586Z,102056.67
2019-03-29T23:17:54.184Z,102052.60
2019-03-29T23:20:23.726Z,102049.77
2019-03-29T23:22:53.271Z,102048.66
2019-03-29T23:25:22.890Z,102047.16
2019-03-29T23:27:52.408Z,102039.87
2019-03-29T23:30:22.339Z,102033.11
2019-03-29T23:32:51.930Z,102039.07
2019-03-29T23:35:21.558Z,102039.39
2019-03-29T23:37:51.165Z,102041.39
2019-03-29T23:40:20.713Z,102038.58
2019-03-29T23:42:50.321Z,102034.50
2019-03-29T23:45:19.976Z,102033.00
2019-03-29T23:47:49.570Z,102030.63
2019-03-29T23:50:19.187Z,102032.25
2019-03-29T23:52:48.781Z,102028.17
2019-03-29T23:55:18.371Z,102023.61
2019-03-29T23:57:47.987Z,102024.86
